Tiempo atmosférico en la estación meteorológica de Moià, Barcelona (735 m.)



Fecha
DESCASC
Temp. máxima en grados centígrados (hora)
DESCASC
Temp. mínima en grados centígrados (hora)
DESCASC
Temp. media en grados centígrados
DESCASC
Racha de viento máxima en m/sg (hora)
DESCASC
Velocidad máxima media en intervalos de 10 minutos(hora)
DESCASC
Precipitaciones diarias en mm
DESCASC
Precipitaciones de 00:00 a 06:00 en mm
DESCASC
Precipitaciones de 06:00 a 12:00 en mm
DESCASC
Precipitaciones de 12:00 a 18:00 en mm
DESCASC
Precipitaciones de 18:00 a 24:00 en mm
DESCASC
18-11-2019 11.6 (14:30) 1.6 (05:40) 6.6 7.78 (12:20) 4.17 (16:50) 0 0 0 0 0
17-11-2019 7.4 (16:10) -0.3 (05:50) 3.6 7.78 (11:20) 4.17 (14:20) 0 0 0 0 0
16-11-2019 7.6 (15:00) -0.4 (03:00) 3.6 7.22 (15:30) 4.72 (15:30) 0 0 0 0 0
15-11-2019 5.8 (14:50) -0.3 (07:40) 2.8 9.17 (16:10) 5.56 (15:50) 0 0 0 0 0
14-11-2019 8.4 (08:10) 0.6 (00:00) 4.5 8.33 (13:30) 5 (12:40) 7 0 7 0 0
13-11-2019 10.2 (15:40) 2.4 (00:00) 6.3 5.83 (13:50) 3.61 (16:40) 0 0 0 0 0
12-11-2019 13.1 (14:10) 2.7 (00:00) 7.9 8.06 (13:50) 5 (15:30) 0 0 0 0 0
11-11-2019 10.4 (15:00) -0.2 (04:20) 5.1 6.11 (14:30) 3.61 (12:30) 0 0 0 0 0
10-11-2019 11 (15:10) 1.7 (00:00) 6.4 7.22 (16:00) 3.61 (15:20) 2 2 0 0 0
09-11-2019 9.5 (15:40) -0.2 (00:00) 4.6 8.89 (13:20) 4.72 (13:20) 0 0 0 0 0
08-11-2019 8.8 (14:40) 0.8 (00:00) 4.8 11.39 (16:30) 6.11 (16:30) 0 0 0 0 0
07-11-2019 10.3 (10:40) 3.6 (00:00) 7 6.11 (04:00) 3.61 (13:30) 0 0 0 0 0
06-11-2019 13.1 (16:00) 3.4 (00:00) 8.3 7.78 (15:00) 5 (15:00) 0 0 0 0 0
05-11-2019 12 (00:10) 5.5 (00:00) 8.8 15 (15:00) 8.61 (15:10) 4.8 4.8 0 0 0
04-11-2019 16.9 (13:40) 8.2 (00:00) 12.5 14.72 (12:10) 8.33 (12:20) 0 0 0 0 0
03-11-2019 14.8 (15:00) 7.7 (00:00) 11.3 13.61 (14:20) 7.78 (10:20) 2 1.8 0.2 0 0
02-11-2019 18.1 (13:10) 10.7 (00:00) 14.4 10.28 (14:10) 6.39 (14:10) 0 0 0 0 0
01-11-2019 16.9 (14:30) 8.6 (00:00) 12.8 5 (13:30) 2.78 (13:30) 0.6 0 0 0 0.6
31-10-2019 17.4 (15:40) 11.4 (07:30) 14.4 5 (16:30) 3.06 (15:40) 0 0 0 0 0
30-10-2019 20.3 (13:10) 10.9 (00:00) 15.6 7.78 (14:50) 5 (14:50) 0 0 0 0 0
29-10-2019 20.5 (15:50) 10 (00:00) 15.3 4.44 (16:20) 2.78 (16:30) 0 0 0 0 0
28-10-2019 16.2 (14:40) 10.6 (00:00) 13.4 3.61 (15:10) 1.94 (13:20) 0 0 0 0 0
27-10-2019 21 (15:10) 10 (00:00) 15.5 5.56 (12:40) 3.33 (14:30) 0 0 0 0 0
26-10-2019 21.2 (14:50) 9.5 (00:00) 15.4 4.72 (13:10) 2.78 (13:40) 0 0 0 0 0
25-10-2019 18.7 (16:10) 6.6 (00:00) 12.7 5.28 (16:50) 3.06 (13:00) 0 0 0 0 0
24-10-2019 14.2 (14:40) 6.9 (00:00) 10.5 7.78 (16:10) 4.72 (16:10) 0 0 0 0 0
23-10-2019 15.2 (15:10) 9.5 (00:00) 12.3 7.5 (00:10) 3.06 (17:50) 53.8 53.4 0.2 0.2 0
22-10-2019 16.7 (22:20) 10 (00:00) 13.4 21.11 (10:50) 9.17 (12:00) 28.6 0 7.4 6.8 14.4

Gráficas

Temp. máximas Temp. mínimas Temp. medias Precipitaciones Rachas de viento máximas Velocidades máximas media en intervalos de 10 minutos

Datos horarios

Fecha y hora oficial Temperatura (ºC) Velocidad del viento (km/h) Dirección del viento Racha (km/h) Dirección de racha Precipitación (mm) Presión (hPa) Tendencia (hPa) Humedad (%)
2019-11-20 23:00:00 3.6 3 Noroeste 6 Norte 0 -- -- 95
2019-11-20 22:00:00 3.8 0 Calma 10 Oeste 0 -- -- 92
2019-11-20 21:00:00 3.9 5 Norte 19 Noroeste 0 -- -- 90
2019-11-20 20:00:00 4.7 6 Oeste 12 Oeste 0 -- -- 91
2019-11-20 19:00:00 5.3 5 Sudoeste 10 Sudoeste 0 -- -- 89
2019-11-20 18:00:00 6.1 7 Sudoeste 12 Sudoeste 0 -- -- 83
2019-11-20 17:00:00 7.2 9 Sudoeste 18 Oeste 0 -- -- 73
2019-11-20 16:00:00 8.5 10 Oeste 21 Sudoeste 0 -- -- 63
2019-11-20 15:00:00 9.2 13 Sudoeste 20 Sudoeste 0 -- -- 60
2019-11-20 14:00:00 8.7 14 Sudoeste 24 Oeste 0 -- -- 62
2019-11-20 13:00:00 9.7 11 Oeste 19 Oeste 0 -- -- 60
2019-11-20 12:00:00 8.5 9 Oeste 18 Oeste 0 -- -- 64
2019-11-20 11:00:00 5.3 3 Sur 5 Sur 0 -- -- 77
2019-11-20 10:00:00 2.7 0 Calma 3 Oeste 0 -- -- 88
2019-11-20 09:00:00 1.3 2 Oeste 6 Norte 0 -- -- 93
2019-11-20 08:00:00 0.4 2 Norte 7 Noroeste 0 -- -- 94
2019-11-20 07:00:00 0.3 0 Calma 7 Noroeste 0 -- -- 94
2019-11-20 06:00:00 -0.1 2 Norte 5 Norte 0 -- -- 94
2019-11-20 05:00:00 -0.7 3 Norte 4 Norte 0 -- -- 94
2019-11-20 04:00:00 -0.3 3 Noroeste 5 Norte 0 -- -- 93
2019-11-20 03:00:00 -0.5 0 Calma 5 Nordeste 0 -- -- 93
2019-11-20 02:00:00 0 0 Calma 5 Norte 0 -- -- 93
2019-11-20 01:00:00 0.4 0 Calma 4 Norte 0 -- -- 92
2019-11-20 00:00:00 0.7 3 Norte 6 Norte 0 -- -- 91
2019-11-19 23:00:00 0.9 4 Norte 6 Norte -- -- -- 89
2019-11-19 22:00:00 1 3 Norte 6 Norte 0 -- -- 87
2019-11-19 21:00:00 0.9 2 Nordeste 5 Norte 0 -- -- 85
2019-11-19 20:00:00 1.7 3 Nordeste 5 Norte 0 -- -- 82
2019-11-19 19:00:00 2.6 2 Noroeste 9 Noroeste 0 -- -- 78
2019-11-19 18:00:00 4.2 5 Noroeste 8 Noroeste 0 -- -- 70
2019-11-19 17:00:00 7.2 6 Sudoeste 15 Sudoeste 0 -- -- 57
2019-11-19 16:00:00 8 9 Sudoeste 16 Oeste 0.4 -- -- 55
2019-11-19 15:00:00 8.9 5 Sudoeste 12 Sudoeste 0 -- -- 56
2019-11-19 14:00:00 8.1 7 Oeste 15 Oeste 0 -- -- 60
2019-11-19 13:00:00 7.1 8 Oeste 16 Sudoeste 0 -- -- 62
2019-11-19 12:00:00 5.8 9 Sudoeste 17 Oeste 0 -- -- 66
2019-11-19 11:00:00 4.1 9 Oeste 16 Oeste 0 -- -- 75
2019-11-19 10:00:00 3.2 9 Oeste 16 Oeste 0 -- -- 77
2019-11-19 09:00:00 1.6 2 Sur 9 Oeste 0 -- -- 88
2019-11-19 08:00:00 -0.9 4 Noroeste 10 Noroeste 0 -- -- 94
2019-11-19 07:00:00 -0.9 2 Noroeste 8 Norte 0 -- -- 92
2019-11-19 06:00:00 -0.6 3 Norte 8 Oeste 0 -- -- 92
2019-11-19 05:00:00 -0.2 2 Noroeste 7 Norte 0 -- -- 94
2019-11-19 04:00:00 0.1 3 Norte 7 Norte 0 -- -- 96
2019-11-19 03:00:00 1.5 0 Calma 5 Norte 0 -- -- 97
2019-11-19 02:00:00 2.1 2 Noroeste 9 Oeste 0 -- -- 97
2019-11-19 01:00:00 2.1 3 Sudoeste 8 Oeste 0 -- -- 96
2019-11-19 00:00:00 1.9 3 Noroeste 8 Noroeste 0 -- -- 95
2019-11-18 23:00:00 2.1 2 Oeste 6 Norte 0 -- -- 94
2019-11-18 22:00:00 3 3 Norte 8 Sudoeste 0 -- -- 93
2019-11-18 21:00:00 3.3 2 Norte 8 Sudoeste 0 -- -- 93
2019-11-18 20:00:00 3.7 3 Este 16 Oeste 0 -- -- 90
2019-11-18 19:00:00 4.1 4 Noroeste 8 Norte 0 -- -- 87
2019-11-18 18:00:00 5.6 2 Noroeste 21 Oeste 0 -- -- 83
2019-11-18 17:00:00 7.6 13 Oeste 24 Oeste 0 -- -- 76
2019-11-18 16:00:00 9.4 12 Sudoeste 22 Sudoeste 0 -- -- 65
2019-11-18 15:00:00 10.6 8 Sudoeste 18 Oeste 0 -- -- 62
2019-11-18 14:00:00 10.6 4 Noroeste 21 Nordeste 0 -- -- 63
2019-11-18 13:00:00 9.1 10 Este 28 Este 0 -- -- 68
2019-11-18 12:00:00 8.1 12 Este 24 Este 0 -- -- 72
2019-11-18 11:00:00 7.5 10 Este 22 Este 0 -- -- 74
2019-11-18 10:00:00 7.2 7 Este 20 Nordeste 0 -- -- 80
2019-11-18 09:00:00 5 5 Este 21 Nordeste 0 -- -- 93
2019-11-18 08:00:00 3.3 4 Este 18 Nordeste 0 -- -- 95
2019-11-18 07:00:00 2.7 3 Nordeste 11 Este 0 -- -- 96
2019-11-18 06:00:00 1.7 3 Nordeste 6 Nordeste 0 -- -- 95
2019-11-18 05:00:00 2 2 Norte 6 Oeste 0 -- -- 94
2019-11-18 04:00:00 2.9 4 Noroeste 7 Noroeste 0 -- -- 94
2019-11-18 03:00:00 3.9 2 Norte 5 Oeste 0 -- -- 94
2019-11-18 02:00:00 4.1 0 Calma 7 Sudoeste 0 -- -- 93
2019-11-18 01:00:00 4.7 4 Oeste 9 Oeste 0 -- -- 92
2019-11-18 00:00:00 5 3 Oeste 9 Oeste 0 -- -- 90
2019-11-17 23:00:00 5.3 4 Oeste 9 Sudoeste 0 -- -- 88
2019-11-17 22:00:00 5.3 5 Oeste 8 Oeste 0 -- -- 87
2019-11-17 21:00:00 5.4 3 Oeste 10 Noroeste 0 -- -- 87
2019-11-17 20:00:00 5.3 3 Oeste 10 Sudoeste 0 -- -- 88
2019-11-17 19:00:00 5.2 4 Oeste 12 Oeste 0 -- -- 86
2019-11-17 18:00:00 5.2 3 Oeste 15 Oeste 0 -- -- 83
2019-11-17 17:00:00 7 10 Oeste 21 Oeste 0 -- -- 73
2019-11-17 16:00:00 7.1 9 Oeste 17 Sudoeste 0 -- -- 74
2019-11-17 15:00:00 6.3 6 Oeste 24 Oeste 0 -- -- 74
2019-11-17 14:00:00 6.8 12 Oeste 23 Noroeste 0 -- -- 71
2019-11-17 13:00:00 6.2 9 Oeste 26 Oeste 0 -- -- 75
2019-11-17 12:00:00 4.9 13 Oeste 28 Oeste 0 -- -- 81
2019-11-17 11:00:00 3.2 8 Oeste 17 Oeste 0 -- -- 99
2019-11-17 10:00:00 0.5 3 Sur 22 Oeste 0 -- -- 98
2019-11-17 09:00:00 0 4 Oeste 16 Oeste 0 -- -- 98
2019-11-17 08:00:00 -0.2 5 Oeste 15 Oeste 0 -- -- 98
2019-11-17 07:00:00 -0.3 2 Nordeste 8 Noroeste 0 -- -- 98
2019-11-17 06:00:00 -0.3 3 Noroeste 8 Norte 0 -- -- 97
2019-11-17 05:00:00 0 0 Calma 15 Noroeste 0 -- -- 97
2019-11-17 04:00:00 0.1 4 Noroeste 14 Oeste 0 -- -- 97
2019-11-17 03:00:00 -0.2 3 Norte 9 Oeste 0 -- -- 96
2019-11-17 02:00:00 -0.1 2 Norte 6 Oeste 0 -- -- 95
2019-11-17 01:00:00 0.3 3 Noroeste 10 Oeste 0 -- -- 95
2019-11-17 00:00:00 0.6 3 Oeste 11 Noroeste 0 -- -- 95
2019-11-16 23:00:00 1 6 Noroeste 11 Noroeste 0 -- -- 94
2019-11-16 22:00:00 0.9 3 Sur 9 Oeste 0 -- -- 94
2019-11-16 21:00:00 1.5 3 Nordeste 11 Oeste 0 -- -- 93
2019-11-16 20:00:00 1.8 4 Sudoeste 21 Oeste 0 -- -- 93
2019-11-16 19:00:00 1.6 9 Noroeste 23 Sudoeste 0 -- -- 92
2019-11-16 18:00:00 1.9 5 Noroeste 17 Oeste 0 -- -- 85
2019-11-16 17:00:00 4.4 9 Oeste 24 Oeste 0 -- -- 78
2019-11-16 16:00:00 6.6 13 Oeste 26 Oeste 0 -- -- 66
2019-11-16 15:00:00 7.6 12 Oeste 23 Oeste 0 -- -- 69
2019-11-16 14:00:00 7.3 9 Oeste 22 Oeste 0 -- -- 74
2019-11-16 13:00:00 7.1 11 Oeste 18 Oeste 0 -- -- 75
2019-11-16 12:00:00 6.7 9 Oeste 18 Oeste 0 -- -- 81
2019-11-16 11:00:00 5.3 6 Oeste 15 Oeste 0 -- -- 100
2019-11-16 10:00:00 1.5 2 Sudoeste 6 Este 0 -- -- 100
2019-11-16 09:00:00 0.6 4 Oeste 10 Norte 0 -- -- 99
2019-11-16 08:00:00 0.2 5 Oeste 10 Este 0 -- -- 99
2019-11-16 07:00:00 0.4 3 Sudeste 10 Norte 0 -- -- 99
2019-11-16 06:00:00 0.3 3 Nordeste 6 Este 0 -- -- 98
2019-11-16 05:00:00 0.7 3 Nordeste 9 Norte 0 -- -- 98
2019-11-16 04:00:00 0.3 0 Calma 5 Norte 0 -- -- 98
2019-11-16 03:00:00 -0.4 4 Nordeste 6 Sudeste 0 -- -- 97
2019-11-16 02:00:00 -0.3 0 Calma 6 Nordeste 0 -- -- 97
2019-11-16 01:00:00 0.1 2 Nordeste 6 Nordeste 0 -- -- 96
2019-11-16 00:00:00 0.8 3 Oeste 8 Noroeste 0 -- -- 95
2019-11-15 23:00:00 1.3 4 Oeste 9 Oeste 0 -- -- 95
2019-11-15 22:00:00 2.1 3 Oeste 10 Oeste 0 -- -- 94
2019-11-15 21:00:00 2.2 5 Noroeste 13 Noroeste 0 -- -- 93
2019-11-15 20:00:00 2.6 8 Oeste 17 Oeste 0 -- -- 92
2019-11-15 19:00:00 2.6 6 Noroeste 28 Oeste 0 -- -- 92
2019-11-15 18:00:00 2.8 16 Oeste 26 Oeste 0 -- -- 89
2019-11-15 17:00:00 3.9 12 Oeste 33 Oeste 0 -- -- 84
2019-11-15 16:00:00 4.8 15 Oeste 30 Oeste 0 -- -- 81
2019-11-15 15:00:00 5.5 17 Oeste 27 Oeste 0 -- -- 75
2019-11-15 14:00:00 5 13 Oeste 22 Sudoeste 0 -- -- 84
2019-11-15 13:00:00 4 12 Oeste 21 Oeste 0 -- -- 87
2019-11-15 12:00:00 4.9 10 Oeste 19 Oeste 0 -- -- 87
2019-11-15 11:00:00 3.3 8 Oeste 15 Sudoeste 0 -- -- 96
2019-11-15 10:00:00 1.8 3 Sudeste 10 Oeste 0 -- -- 100
2019-11-15 09:00:00 0.3 0 Calma 7 Oeste 0 -- -- 99
2019-11-15 08:00:00 -0.3 2 Nordeste 5 Nordeste 0 -- -- 99
2019-11-15 07:00:00 0.1 3 Norte 7 Noroeste 0 -- -- 99
2019-11-15 06:00:00 0.5 3 Noroeste 8 Norte 0 -- -- 99
2019-11-15 05:00:00 0.5 3 Oeste 5 Norte 0 -- -- 99
2019-11-15 04:00:00 0.7 4 Norte 8 Noroeste 0 -- -- 98
2019-11-15 03:00:00 0 4 Norte 6 Norte 0 -- -- 98
2019-11-15 02:00:00 -0.1 2 Norte 6 Norte 0 -- -- 98
2019-11-15 01:00:00 0.2 3 Norte 9 Sudeste 0 -- -- 98
2019-11-15 00:00:00 0.6 0 Calma 8 Norte 0 -- -- 97
2019-11-14 23:00:00 0.8 0 Calma 8 Oeste 0 -- -- 97
2019-11-14 22:00:00 1.2 3 Oeste 6 Oeste 0 -- -- 97
2019-11-14 21:00:00 2 5 Oeste 12 Oeste 0 -- -- 96
2019-11-14 20:00:00 2.4 3 Oeste 16 Oeste 0 -- -- 97
2019-11-14 19:00:00 3 5 Noroeste 12 Noroeste 0 -- -- 97
2019-11-14 18:00:00 3.3 4 Oeste 23 Oeste 0 -- -- 97
2019-11-14 17:00:00 3.6 14 Oeste 25 Oeste 0 -- -- 98
2019-11-14 16:00:00 4.1 5 Sudoeste 19 Oeste 0 -- -- 98
2019-11-14 15:00:00 4 13 Oeste 27 Oeste 0 -- -- 97
2019-11-14 14:00:00 5.1 15 Oeste 30 Oeste 0 -- -- 95
2019-11-14 13:00:00 6.2 10 Oeste 27 Sudoeste 0 -- -- 96
2019-11-14 12:00:00 6.4 11 Oeste 23 Oeste 3 -- -- 97
2019-11-14 11:00:00 6.5 5 Oeste 11 Oeste 1.4 -- -- 96
2019-11-14 10:00:00 6.7 2 Norte 12 Oeste 0 -- -- 95
2019-11-14 09:00:00 7 8 Noroeste 24 Oeste 2.6 -- -- 93
2019-11-14 08:00:00 8.3 9 Oeste 22 Sudoeste 0 -- -- 94
2019-11-14 07:00:00 7.8 11 Sudoeste 22 Sudoeste 0 -- -- 95
2019-11-14 06:00:00 7.1 11 Oeste 19 Sudoeste 0 -- -- 92
2019-11-14 05:00:00 5.7 5 Oeste 9 Noroeste 0 -- -- 86
2019-11-14 04:00:00 4.8 3 Nordeste 5 Nordeste 0 -- -- 86
2019-11-14 03:00:00 4.7 2 Sudoeste 11 Oeste 0 -- -- 86
2019-11-14 02:00:00 4.7 7 Oeste 17 Oeste 0 -- -- 87
2019-11-14 01:00:00 3.9 5 Noroeste 10 Noroeste 0 -- -- 93
2019-11-14 00:00:00 3.9 3 Nordeste 6 Este 0 -- -- 93
2019-11-13 23:00:00 4.7 0 Calma 10 Noroeste 0 -- -- 90
2019-11-13 22:00:00 5.6 4 Noroeste 8 Oeste 0 -- -- 94
2019-11-13 21:00:00 4.9 4 Noroeste 6 Noroeste 0 -- -- 94
2019-11-13 20:00:00 5.4 0 Calma 7 Este 0 -- -- 91
2019-11-13 19:00:00 6.4 4 Noroeste 13 Oeste 0 -- -- 87
2019-11-13 18:00:00 7.7 9 Oeste 17 Oeste 0 -- -- 82
2019-11-13 17:00:00 9.6 9 Oeste 21 Oeste 0 -- -- 77
2019-11-13 16:00:00 10 10 Oeste 17 Oeste 0 -- -- 74
2019-11-13 15:00:00 9 6 Oeste 16 Oeste 0 -- -- 79
2019-11-13 14:00:00 8.7 8 Oeste 21 Sudoeste 0 -- -- 81
2019-11-13 13:00:00 8.1 7 Oeste 14 Oeste 0 -- -- 83
2019-11-13 12:00:00 7.2 6 Oeste 13 Oeste 0 -- -- 86
2019-11-13 11:00:00 7.1 6 Oeste 10 Oeste 0 -- -- 90
2019-11-13 10:00:00 5.5 2 Oeste 5 Norte 0 -- -- 94
2019-11-13 09:00:00 4.6 0 Calma 5 Oeste 0 -- -- 95
2019-11-13 08:00:00 3.8 3 Nordeste 6 Norte 0 -- -- 97
2019-11-13 07:00:00 3.1 2 Norte 5 Norte 0 -- -- 96
2019-11-13 06:00:00 2.6 3 Nordeste 9 Este 0 -- -- 95
2019-11-13 05:00:00 2.5 3 Nordeste 6 Norte 0 -- -- 96
2019-11-13 04:00:00 2.4 3 Norte 8 Oeste 0 -- -- 94
2019-11-13 03:00:00 3.4 2 Norte 9 Noroeste 0 -- -- 93
2019-11-13 02:00:00 4 4 Norte 13 Oeste 0 -- -- 92
2019-11-13 01:00:00 4.7 5 Noroeste 16 Oeste 0 -- -- 90
2019-11-13 00:00:00 5.4 2 Noroeste 20 Noroeste 0 -- -- 87
2019-11-12 23:00:00 5.7 8 Noroeste 21 Noroeste 0 -- -- 86
2019-11-12 22:00:00 5.9 4 Noroeste 10 Noroeste 0 -- -- 85
2019-11-12 21:00:00 6.5 0 Calma 9 Noroeste 0 -- -- 80
2019-11-12 20:00:00 7.7 5 Noroeste 17 Oeste 0 -- -- 77
2019-11-12 19:00:00 8.5 6 Noroeste 21 Oeste 0 -- -- 73
2019-11-12 18:00:00 9.6 8 Oeste 16 Oeste 0 -- -- 67
2019-11-12 17:00:00 11.7 8 Oeste 25 Oeste 0 -- -- 58
2019-11-12 16:00:00 12 13 Oeste 28 Sudoeste 0 -- -- 52
2019-11-12 15:00:00 12.8 15 Oeste 28 Oeste 0 -- -- 45
2019-11-12 14:00:00 12.9 16 Oeste 29 Oeste 0 -- -- 44
2019-11-12 13:00:00 12 12 Oeste 24 Oeste 0 -- -- 49
2019-11-12 12:00:00 11.1 14 Oeste 25 Oeste 0 -- -- 51
2019-11-12 11:00:00 11.2 12 Oeste 21 Oeste 0 -- -- 44
2019-11-12 10:00:00 10 4 Sudoeste 12 Sudoeste 0 -- -- 46
2019-11-12 09:00:00 5.8 3 Sudoeste 11 Oeste 0 -- -- 65
2019-11-12 08:00:00 3.7 2 Noroeste 8 Este 0 -- -- 74
2019-11-12 07:00:00 3.8 2 Noroeste 12 Oeste 0 -- -- 74
2019-11-12 06:00:00 3.2 2 Noroeste 17 Oeste 0 -- -- 82
2019-11-12 05:00:00 3.6 8 Oeste 15 Oeste 0 -- -- 78
2019-11-12 04:00:00 2.9 2 Norte 8 Noroeste 0 -- -- 88
2019-11-12 03:00:00 2.8 2 Noroeste 6 Oeste 0 -- -- 86
2019-11-12 02:00:00 3.3 2 Norte 16 Oeste 0 -- -- 82
2019-11-12 01:00:00 4.4 12 Noroeste 18 Noroeste 0 -- -- 80
2019-11-12 00:00:00 3.3 3 Noroeste 10 Oeste 0 -- -- 79
2019-11-11 23:00:00 3.3 4 Norte 9 Norte 0 -- -- 87
2019-11-11 22:00:00 3.9 2 Norte 6 Sudeste 0 -- -- 83
2019-11-11 21:00:00 4.7 3 Noroeste 11 Oeste 0 -- -- 81
2019-11-11 20:00:00 5.3 0 Calma 12 Oeste 0 -- -- 82
2019-11-11 19:00:00 4.9 3 Noroeste 10 Oeste 0 -- -- 75
2019-11-11 18:00:00 5.9 3 Noroeste 8 Noroeste 0 -- -- 70
2019-11-11 17:00:00 7.5 2 Oeste 15 Oeste 0 -- -- 70
2019-11-11 16:00:00 8.8 10 Oeste 18 Sudoeste 0 -- -- 62
2019-11-11 15:00:00 10.4 10 Oeste 22 Oeste 0 -- -- 53
2019-11-11 14:00:00 10.3 12 Oeste 19 Sudoeste 0 -- -- 50
2019-11-11 13:00:00 9 8 Oeste 19 Oeste 0 -- -- 51
2019-11-11 12:00:00 7.3 6 Sudoeste 18 Sudoeste 0 -- -- 69
2019-11-11 11:00:00 4 10 Oeste 15 Oeste 0 -- -- 79
2019-11-11 10:00:00 2.8 8 Oeste 16 Oeste 0 -- -- 79
2019-11-11 09:00:00 1.2 3 Oeste 8 Este 0 -- -- 85
2019-11-11 08:00:00 0.2 2 Sudoeste 9 Sudeste 0 -- -- 91
2019-11-11 07:00:00 0 4 Oeste 9 Este 0 -- -- 91
2019-11-11 06:00:00 0.2 3 Sur 14 Oeste 0 -- -- 90
2019-11-11 05:00:00 0.1 5 Noroeste 12 Noroeste 0 -- -- 94
2019-11-11 04:00:00 0 3 Norte 6 Oeste 0 -- -- 94
2019-11-11 03:00:00 0.6 6 Oeste 16 Noroeste -- -- -- 93
2019-11-11 02:00:00 1.3 8 Noroeste 18 Noroeste 0 -- -- 93
2019-11-11 01:00:00 0.8 2 Norte 8 Oeste 0 -- -- 92
2019-11-11 00:00:00 1.7 3 Noroeste 7 Noroeste 0 -- -- 92
2019-11-10 23:00:00 2.6 5 Noroeste 10 Oeste 0 -- -- 90
2019-11-10 22:00:00 3.4 6 Noroeste 14 Noroeste 0 -- -- 88
2019-11-10 21:00:00 3.9 5 Noroeste 11 Noroeste 0 -- -- 87
2019-11-10 20:00:00 4 3 Noroeste 6 Oeste 0 -- -- 86
2019-11-10 19:00:00 5.8 5 Norte 15 Oeste 0 -- -- 79
2019-11-10 18:00:00 7.8 6 Noroeste 14 Oeste 0 -- -- 70
2019-11-10 17:00:00 10 10 Oeste 21 Oeste 0 -- -- 61
2019-11-10 16:00:00 10.6 13 Oeste 26 Oeste 0 -- -- 55
2019-11-10 15:00:00 10.9 9 Oeste 20 Oeste 0 -- -- 57
2019-11-10 14:00:00 10.1 12 Oeste 22 Oeste 0 -- -- 65
2019-11-10 13:00:00 9.2 12 Oeste 21 Oeste 0 -- -- 70
2019-11-10 12:00:00 7.8 11 Oeste 17 Oeste 0 -- -- 77
2019-11-10 11:00:00 5.2 6 Sudoeste 10 Sudoeste 0 -- -- 93
2019-11-10 10:00:00 4.9 4 Oeste 11 Oeste 0 -- -- 97
2019-11-10 09:00:00 4.5 4 Oeste 7 Oeste 0 -- -- 97
2019-11-10 08:00:00 4.6 3 Sudoeste 8 Sudoeste 0 -- -- 97
2019-11-10 07:00:00 4.6 3 Oeste 13 Sudoeste 0 -- -- 96
2019-11-10 06:00:00 4.6 4 Oeste 15 Noroeste 0 -- -- 95
2019-11-10 05:00:00 4.8 4 Norte 12 Nordeste 0.6 -- -- 92
2019-11-10 04:00:00 4.7 2 Nordeste 19 Este 0.8 -- -- 92
2019-11-10 03:00:00 5.5 9 Norte 24 Norte 0.6 -- -- 88
2019-11-10 02:00:00 5.8 3 Norte 9 Norte 0 -- -- 90
2019-11-10 01:00:00 5.9 2 Norte 10 Oeste 0 -- -- 88
2019-11-10 00:00:00 6.1 5 Noroeste 20 Oeste 0 -- -- 87
2019-11-09 23:00:00 6.1 2 Este 18 Oeste 0 -- -- 86
2019-11-09 22:00:00 6.3 8 Oeste 19 Oeste 0 -- -- 85
2019-11-09 21:00:00 6.5 8 Oeste 22 Noroeste 0 -- -- 84
2019-11-09 20:00:00 6.7 10 Oeste 17 Oeste 0 -- -- 84
2019-11-09 19:00:00 7.1 6 Oeste 14 Oeste 0 -- -- 80
2019-11-09 18:00:00 7.1 4 Noroeste 16 Sudoeste 0 -- -- 78
2019-11-09 17:00:00 8.3 10 Oeste 18 Sudoeste 0 -- -- 73
2019-11-09 16:00:00 9.3 9 Oeste 23 Sudoeste 0 -- -- 68
2019-11-09 15:00:00 8.1 9 Oeste 20 Oeste 0 -- -- 76
2019-11-09 14:00:00 8.6 11 Oeste 32 Oeste 0 -- -- 71
2019-11-09 13:00:00 8.8 16 Oeste 26 Oeste 0 -- -- 71
2019-11-09 12:00:00 8.5 14 Oeste 22 Oeste 0 -- -- 68
2019-11-09 11:00:00 7.2 10 Oeste 21 Oeste 0 -- -- 73
2019-11-09 10:00:00 5.7 9 Oeste 21 Oeste 0 -- -- 79
2019-11-09 09:00:00 4.2 4 Oeste 14 Noroeste 0 -- -- 92
2019-11-09 08:00:00 1 0 Calma 7 Noroeste 0 -- -- 98
2019-11-09 07:00:00 0.7 5 Noroeste 10 Noroeste 0 -- -- 98
2019-11-09 06:00:00 0.2 5 Noroeste 9 Oeste 0 -- -- 97
2019-11-09 05:00:00 0 4 Norte 7 Norte 0 -- -- 96
2019-11-09 04:00:00 0 3 Norte 7 Sudoeste 0 -- -- 95
2019-11-09 03:00:00 0.9 3 Oeste 14 Sudoeste 0 -- -- 94
2019-11-09 02:00:00 1.2 5 Noroeste 14 Oeste 0 -- -- 93
2019-11-09 01:00:00 1.6 5 Noroeste 27 Oeste 0 -- -- 93
2019-11-09 00:00:00 1.9 6 Noroeste 18 Oeste 0 -- -- 92
2019-11-08 23:00:00 2.1 8 Oeste 18 Oeste 0 -- -- 92
2019-11-08 22:00:00 2.5 4 Noroeste 13 Sudoeste 0 -- -- 91
2019-11-08 21:00:00 3.3 8 Oeste 22 Noroeste 0 -- -- 87
2019-11-08 20:00:00 4.1 6 Noroeste 15 Oeste 0 -- -- 85
2019-11-08 19:00:00 4.7 9 Oeste 20 Oeste 0 -- -- 83
2019-11-08 18:00:00 5.8 6 Oeste 38 Noroeste 0 -- -- 77
2019-11-08 17:00:00 6.8 19 Oeste 41 Oeste 0 -- -- 72
2019-11-08 16:00:00 7.9 17 Oeste 28 Sudoeste 0 -- -- 70
2019-11-08 15:00:00 8.4 15 Oeste 31 Oeste 0 -- -- 67
2019-11-08 14:00:00 7.9 12 Oeste 27 Oeste 0 -- -- 69
2019-11-08 13:00:00 7.5 12 Oeste 27 Oeste 0 -- -- 72
2019-11-08 12:00:00 6.8 16 Oeste 28 Oeste 0 -- -- 71
2019-11-08 11:00:00 5.8 15 Oeste 30 Oeste 0 -- -- 74
2019-11-08 10:00:00 4.6 9 Oeste 17 Oeste 0 -- -- 80
2019-11-08 09:00:00 3.1 11 Oeste 24 Oeste 0 -- -- 86
2019-11-08 08:00:00 1.4 5 Noroeste 14 Noroeste 0 -- -- 95
2019-11-08 07:00:00 1 2 Norte 20 Oeste 0 -- -- 95
2019-11-08 06:00:00 1.6 9 Oeste 20 Oeste 0 -- -- 94
2019-11-08 05:00:00 2.3 6 Oeste 19 Oeste 0 -- -- 93
2019-11-08 04:00:00 2.8 5 Oeste 12 Noroeste 0 -- -- 91
2019-11-08 03:00:00 3.3 5 Oeste 18 Oeste 0 -- -- 87
2019-11-08 02:00:00 3.9 9 Oeste 15 Oeste 0 -- -- 85
2019-11-08 01:00:00 3.9 6 Oeste 15 Oeste 0 -- -- 85
2019-11-08 00:00:00 3.6 5 Oeste 12 Noroeste 0 -- -- 86
2019-11-07 23:00:00 4.2 4 Oeste 12 Noroeste 0 -- -- 82
2019-11-07 22:00:00 4.1 4 Noroeste 8 Noroeste 0 -- -- 87
2019-11-07 21:00:00 4.9 0 Calma 13 Oeste 0 -- -- 85
2019-11-07 20:00:00 6.2 4 Noroeste 18 Oeste 0 -- -- 84
2019-11-07 19:00:00 7 5 Noroeste 18 Oeste 0 -- -- 85
2019-11-07 18:00:00 8.3 8 Oeste 21 Oeste 0 -- -- 83
2019-11-07 17:00:00 9 12 Oeste 20 Oeste 0 -- -- 82
2019-11-07 16:00:00 9.7 10 Oeste 22 Oeste 0 -- -- 82
2019-11-07 15:00:00 9.8 9 Oeste 18 Oeste 0 -- -- 81
2019-11-07 14:00:00 9.4 8 Oeste 22 Oeste 0 -- -- 83
2019-11-07 13:00:00 9.1 5 Sudoeste 20 Sudoeste 0 -- -- 84
2019-11-07 12:00:00 9.9 12 Oeste 21 Sudoeste 0 -- -- 76
2019-11-07 11:00:00 10.2 8 Oeste 17 Sudoeste 0 -- -- 74
2019-11-07 10:00:00 8.9 7 Oeste 18 Sudoeste 0 -- -- 79
2019-11-07 09:00:00 6.6 0 Calma 7 Noroeste 0 -- -- 90
2019-11-07 08:00:00 5.3 0 Calma 9 Oeste 0 -- -- 92
2019-11-07 07:00:00 5.3 5 Noroeste 12 Oeste 0 -- -- 92
2019-11-07 06:00:00 5.2 5 Noroeste 14 Oeste 0 -- -- 92
2019-11-07 05:00:00 5.3 5 Oeste 18 Oeste 0 -- -- 93
2019-11-07 04:00:00 5.1 7 Oeste 22 Oeste 0 -- -- 94
2019-11-07 03:00:00 5 5 Oeste 8 Oeste 0 -- -- 93
2019-11-07 02:00:00 5.4 3 Noroeste 8 Noroeste 0 -- -- 91
2019-11-07 01:00:00 6.1 4 Noroeste 10 Norte 0 -- -- 89
2019-11-07 00:00:00 6.6 6 Noroeste 12 Noroeste 0 -- -- 88
2019-11-06 23:00:00 6.4 5 Noroeste 11 Oeste 0 -- -- 89
2019-11-06 22:00:00 6.1 0 Calma 6 Noroeste 0 -- -- 88
2019-11-06 21:00:00 7.7 5 Noroeste 10 Noroeste 0 -- -- 83
2019-11-06 20:00:00 8.1 6 Oeste 12 Oeste 0 -- -- 83
2019-11-06 19:00:00 8.9 6 Oeste 14 Oeste 0 -- -- 80
2019-11-06 18:00:00 10.6 3 Noroeste 18 Oeste 0 -- -- 74
2019-11-06 17:00:00 12.2 10 Oeste 26 Oeste 0 -- -- 67
2019-11-06 16:00:00 13.1 14 Oeste 27 Oeste 0 -- -- 63
2019-11-06 15:00:00 12.7 18 Oeste 28 Noroeste 0 -- -- 62
2019-11-06 14:00:00 12.5 12 Oeste 24 Oeste 0 -- -- 66
2019-11-06 13:00:00 11.1 13 Oeste 23 Oeste 0 -- -- 73
2019-11-06 12:00:00 9.9 12 Oeste 26 Oeste 0 -- -- 74
2019-11-06 11:00:00 8.1 13 Oeste 24 Oeste 0 -- -- 79
2019-11-06 10:00:00 6.7 12 Oeste 21 Oeste 0 -- -- 89
2019-11-06 09:00:00 4.5 8 Oeste 18 Oeste 0 -- -- 96
2019-11-06 08:00:00 3.8 3 Oeste 14 Oeste 0 -- -- 96
2019-11-06 07:00:00 3.5 2 Noroeste 18 Oeste 0 -- -- 95
2019-11-06 06:00:00 3.9 10 Noroeste 25 Oeste 0 -- -- 95
2019-11-06 05:00:00 3.9 3 Sudoeste 16 Noroeste 0 -- -- 93
2019-11-06 04:00:00 3.8 5 Noroeste 13 Noroeste 0 -- -- 93
2019-11-06 03:00:00 3.8 4 Nordeste 9 Noroeste 0 -- -- 92
2019-11-06 02:00:00 4.3 0 Calma 14 Oeste 0 -- -- 90
2019-11-06 01:00:00 4.8 5 Noroeste 12 Noroeste 0 -- -- 89
2019-11-06 00:00:00 5.5 7 Oeste 17 Oeste 0 -- -- 86
2019-11-05 23:00:00 6.1 7 Noroeste 20 Sudoeste 0 -- -- 84
2019-11-05 22:00:00 6.3 6 Oeste 13 Oeste 0 -- -- 84
2019-11-05 21:00:00 7.1 2 Noroeste 15 Oeste 0 -- -- 81
2019-11-05 20:00:00 7.7 4 Noroeste 24 Oeste 0 -- -- 77
2019-11-05 19:00:00 8.3 11 Oeste 30 Oeste 0 -- -- 73
2019-11-05 18:00:00 9 10 Oeste 45 Oeste 0 -- -- 70
2019-11-05 17:00:00 10.7 21 Oeste 46 Oeste 0 -- -- 63
2019-11-05 16:00:00 11.5 26 Oeste 48 Oeste 0 -- -- 62
2019-11-05 15:00:00 11.7 30 Oeste 54 Oeste 0 -- -- 62
2019-11-05 14:00:00 10.5 23 Oeste 39 Oeste 0 -- -- 67
2019-11-05 13:00:00 11.5 19 Oeste 41 Oeste 0 -- -- 66
2019-11-05 12:00:00 10.9 24 Oeste 44 Oeste 0 -- -- 69
2019-11-05 11:00:00 10 25 Oeste 41 Oeste 0 -- -- 72
2019-11-05 10:00:00 9.4 16 Oeste 31 Oeste 0 -- -- 79
2019-11-05 09:00:00 8.5 12 Oeste 28 Oeste 0 -- -- 84
2019-11-05 08:00:00 7 11 Oeste 23 Oeste 0 -- -- 93
2019-11-05 07:00:00 7.3 12 Oeste 25 Oeste 0 -- -- 94
2019-11-05 06:00:00 7.7 3 Oeste 13 Sudoeste 0 -- -- 95
2019-11-05 05:00:00 8.7 4 Oeste 21 Oeste 0 -- -- 95
2019-11-05 04:00:00 9.5 12 Oeste 23 Oeste 0 -- -- 96
2019-11-05 03:00:00 9.9 12 Oeste 31 Oeste 0.4 -- -- 96
2019-11-05 02:00:00 10.4 14 Oeste 34 Oeste 4.4 -- -- 94
2019-11-05 01:00:00 11.2 7 Oeste 24 Oeste 0 -- -- 90
2019-11-05 00:00:00 11.9 12 Oeste 22 Oeste 0 -- -- 83
2019-11-04 23:00:00 12.5 8 Oeste 41 Oeste 0 -- -- 79
2019-11-04 22:00:00 13.5 15 Oeste 33 Oeste 0 -- -- 74
2019-11-04 21:00:00 15.2 24 Oeste 41 Oeste 0 -- -- 65
2019-11-04 20:00:00 15 11 Sudoeste 21 Sudoeste 0 -- -- 64
2019-11-04 19:00:00 14.6 9 Oeste 22 Oeste 0 -- -- 66
2019-11-04 18:00:00 15.2 13 Oeste 35 Oeste 0 -- -- 64
2019-11-04 17:00:00 16.8 21 Oeste 44 Oeste 0 -- -- 59
2019-11-04 16:00:00 16.9 23 Oeste 45 Sudoeste 0 -- -- 59
2019-11-04 15:00:00 16 26 Oeste 49 Oeste 0 -- -- 61
2019-11-04 14:00:00 16.5 29 Oeste 53 Oeste 0 -- -- 60
2019-11-04 13:00:00 16.4 26 Oeste 53 Oeste 0 -- -- 62
2019-11-04 12:00:00 15.2 26 Oeste 50 Oeste 0 -- -- 65
2019-11-04 11:00:00 13.2 18 Oeste 37 Oeste 0 -- -- 73
2019-11-04 10:00:00 12.6 15 Oeste 27 Oeste 0 -- -- 74
2019-11-04 09:00:00 11.3 13 Oeste 23 Oeste 0 -- -- 76
2019-11-04 08:00:00 9.4 7 Oeste 20 Oeste 0 -- -- 78
2019-11-04 07:00:00 9.4 7 Oeste 18 Oeste 0 -- -- 77
2019-11-04 06:00:00 8.4 6 Oeste 26 Noroeste 0 -- -- 76
2019-11-04 05:00:00 9 8 Oeste 26 Oeste 0 -- -- 73
2019-11-04 04:00:00 8.6 8 Noroeste 23 Oeste 0 -- -- 73
2019-11-04 03:00:00 8.4 8 Oeste 24 Oeste 0 -- -- 73
2019-11-04 02:00:00 8.4 6 Oeste 23 Noroeste 0 -- -- 72
2019-11-04 01:00:00 8.2 8 Oeste 21 Oeste 0 -- -- 71
2019-11-04 00:00:00 8.6 6 Noroeste 20 Oeste 0 -- -- 68
2019-11-03 23:00:00 8.4 9 Noroeste 18 Noroeste 0 -- -- 67
2019-11-03 22:00:00 7.9 2 Nordeste 10 Sudoeste 0 -- -- 75
2019-11-03 21:00:00 8.3 5 Noroeste 13 Noroeste 0 -- -- 73
2019-11-03 20:00:00 8.9 4 Oeste 10 Oeste 0 -- -- 74
2019-11-03 19:00:00 10.2 4 Noroeste 25 Oeste 0 -- -- 69
2019-11-03 18:00:00 11.3 12 Oeste 32 Sudoeste 0 -- -- 65
2019-11-03 17:00:00 13.4 17 Oeste 42 Oeste 0 -- -- 60
2019-11-03 16:00:00 14.6 22 Oeste 42 Oeste 0 -- -- 56
2019-11-03 15:00:00 14.8 24 Oeste 49 Oeste 0 -- -- 56
2019-11-03 14:00:00 14.5 23 Oeste 41 Oeste 0 -- -- 60
2019-11-03 13:00:00 13.9 20 Oeste 37 Sudoeste 0 -- -- 66
2019-11-03 12:00:00 13.3 17 Oeste 37 Oeste 0 -- -- 72
2019-11-03 11:00:00 12.2 21 Oeste 44 Oeste 0 -- -- 82
2019-11-03 10:00:00 12.3 24 Oeste 43 Oeste 0.2 -- -- 84
2019-11-03 09:00:00 11.3 17 Oeste 27 Sudoeste 0 -- -- 90
2019-11-03 08:00:00 10.9 13 Oeste 31 Oeste 0 -- -- 91
2019-11-03 07:00:00 10.4 14 Oeste 31 Oeste 0 -- -- 94
2019-11-03 06:00:00 10.7 14 Oeste 36 Sudoeste 0 -- -- 91
2019-11-03 05:00:00 11.3 21 Oeste 34 Oeste 0 -- -- 90
2019-11-03 04:00:00 11.4 20 Oeste 38 Sudoeste 0.2 -- -- 93
2019-11-03 03:00:00 11.9 19 Oeste 41 Oeste 1.2 -- -- 94
2019-11-03 02:00:00 12.8 17 Oeste 33 Oeste 0.4 -- -- 90
2019-11-03 01:00:00 14.3 14 Sudoeste 22 Oeste 0 -- -- 77
2019-11-03 00:00:00 13.8 11 Oeste 19 Sudoeste 0 -- -- 79
2019-11-02 23:00:00 13.8 9 Oeste 15 Sudoeste 0 -- -- 82
2019-11-02 22:00:00 13.7 3 Oeste 14 Oeste 0 -- -- 84
2019-11-02 21:00:00 14.4 8 Oeste 18 Sudoeste 0 -- -- 81
2019-11-02 20:00:00 14.9 9 Sudoeste 15 Sudoeste 0 -- -- 81
2019-11-02 19:00:00 15.5 8 Oeste 24 Oeste 0 -- -- 79
2019-11-02 18:00:00 16.1 15 Oeste 28 Oeste 0 -- -- 76
2019-11-02 17:00:00 17.1 15 Oeste 35 Oeste 0 -- -- 72
2019-11-02 16:00:00 17.2 13 Oeste 32 Oeste 0 -- -- 71
2019-11-02 15:00:00 17.6 20 Oeste 37 Sudoeste 0 -- -- 69
2019-11-02 14:00:00 17.8 22 Oeste 35 Oeste 0 -- -- 73
2019-11-02 13:00:00 17.9 15 Oeste 33 Oeste 0 -- -- 76
2019-11-02 12:00:00 15.1 9 Oeste 19 Oeste 0 -- -- 92
2019-11-02 11:00:00 14.6 11 Oeste 22 Noroeste 0 -- -- 94
2019-11-02 10:00:00 12.9 7 Oeste 18 Oeste 0 -- -- 97
2019-11-02 09:00:00 11.9 4 Oeste 8 Oeste 0 -- -- 98
2019-11-02 08:00:00 10.7 3 Este 6 Norte 0 -- -- 97
2019-11-02 07:00:00 11.6 3 Oeste 8 Norte 0 -- -- 97
2019-11-02 06:00:00 12.1 2 Norte 7 Norte 0 -- -- 96
2019-11-02 05:00:00 12.9 3 Noroeste 8 Oeste 0 -- -- 97
2019-11-02 04:00:00 13.1 3 Noroeste 4 Noroeste 0 -- -- 96
2019-11-02 03:00:00 13.5 0 Calma 11 Oeste 0 -- -- 96
2019-11-02 02:00:00 13.7 4 Oeste 9 Oeste 0 -- -- 96
2019-11-02 01:00:00 13.7 3 Este 8 Oeste 0 -- -- 96
2019-11-02 00:00:00 13.6 2 Noroeste 8 Noroeste 0 -- -- 96
2019-11-01 23:00:00 13.4 3 Nordeste 4 Nordeste 0.6 -- -- 92
2019-11-01 22:00:00 13.2 0 Calma 5 Oeste 0 -- -- 92
2019-11-01 21:00:00 12.6 0 Calma 2 Noroeste 0 -- -- 90
2019-11-01 20:00:00 13.2 0 Calma 7 Noroeste 0 -- -- 85
2019-11-01 19:00:00 13.7 4 Noroeste 5 Noroeste 0 -- -- 82
2019-11-01 18:00:00 14.7 3 Noroeste 12 Oeste 0 -- -- 77
2019-11-01 17:00:00 15.9 5 Oeste 13 Oeste 0 -- -- 72
2019-11-01 16:00:00 16.2 5 Oeste 15 Oeste 0 -- -- 71
2019-11-01 15:00:00 16.5 10 Oeste 17 Oeste 0 -- -- 68
2019-11-01 14:00:00 16.1 8 Oeste 18 Sudoeste 0 -- -- 71
2019-11-01 13:00:00 15.7 6 Sudoeste 14 Sudoeste 0 -- -- 69
2019-11-01 12:00:00 15.1 5 Sudoeste 10 Sudoeste 0 -- -- 82
2019-11-01 11:00:00 14 3 Sudeste 9 Este 0 -- -- 88
2019-11-01 10:00:00 12.6 4 Sudoeste 7 Oeste 0 -- -- 99
2019-11-01 09:00:00 9.8 2 Este 8 Oeste 0 -- -- 99
2019-11-01 08:00:00 10 3 Norte 10 Oeste 0 -- -- 99
2019-11-01 07:00:00 9.5 4 Norte 9 Norte 0 -- -- 98
2019-11-01 06:00:00 8.9 0 Calma 8 Oeste 0 -- -- 97
2019-11-01 05:00:00 9.5 3 Norte 5 Norte 0 -- -- 97
2019-11-01 04:00:00 10.1 0 Calma 9 Noroeste 0 -- -- 96
2019-11-01 03:00:00 9.9 4 Noroeste 6 Noroeste 0 -- -- 96
2019-11-01 02:00:00 10.3 3 Norte 6 Norte 0 -- -- 95
2019-11-01 01:00:00 10.9 3 Noroeste 6 Oeste 0 -- -- 94
2019-11-01 00:00:00 11.7 0 Calma 12 Oeste 0 -- -- 91
2019-10-31 23:00:00 11.8 8 Oeste 13 Noroeste 0 -- -- 95
2019-10-31 22:00:00 11.9 0 Calma 6 Nordeste 0 -- -- 94
2019-10-31 21:00:00 12.2 3 Norte 6 Este 0 -- -- 94
2019-10-31 20:00:00 12.7 0 Calma 4 Norte 0 -- -- 91
2019-10-31 19:00:00 13.7 0 Calma 9 Oeste 0 -- -- 88
2019-10-31 18:00:00 15.5 5 Oeste 15 Oeste 0 -- -- 83
2019-10-31 17:00:00 16.4 7 Oeste 18 Sudoeste 0 -- -- 80
2019-10-31 16:00:00 16.7 8 Sudoeste 17 Oeste 0 -- -- 78
2019-10-31 15:00:00 17 8 Sudoeste 11 Oeste 0 -- -- 77
2019-10-31 14:00:00 16.5 2 Este 12 Sudoeste 0 -- -- 78
2019-10-31 13:00:00 16 0 Calma 10 Noroeste 0 -- -- 79
2019-10-31 12:00:00 16 3 Sudoeste 12 Oeste 0 -- -- 79
2019-10-31 11:00:00 15.6 7 Oeste 12 Oeste 0 -- -- 81
2019-10-31 10:00:00 13.7 2 Sudoeste 17 Noroeste 0 -- -- 89
2019-10-31 09:00:00 13.1 9 Oeste 14 Oeste 0 -- -- 91
2019-10-31 08:00:00 11.7 3 Noroeste 16 Oeste 0 -- -- 95
2019-10-31 07:00:00 11.6 3 Noroeste 10 Sudoeste 0 -- -- 94
2019-10-31 06:00:00 11.7 0 Calma 8 Nordeste 0 -- -- 94
2019-10-31 05:00:00 11.6 2 Oeste 5 Sudoeste 0 -- -- 94
2019-10-31 04:00:00 11.6 0 Calma 7 Nordeste 0 -- -- 93
2019-10-31 03:00:00 12 3 Nordeste 6 Este 0 -- -- 92
2019-10-31 02:00:00 12.2 3 Noroeste 8 Noroeste 0 -- -- 91
2019-10-31 01:00:00 12.3 4 Norte 10 Noroeste 0 -- -- 89
2019-10-31 00:00:00 12.5 6 Noroeste 12 Norte 0 -- -- 87
2019-10-30 23:00:00 11.8 0 Calma 7 Norte 0 -- -- 89
2019-10-30 22:00:00 11.5 3 Norte 6 Norte 0 -- -- 88
2019-10-30 21:00:00 12 3 Norte 6 Norte 0 -- -- 86
2019-10-30 20:00:00 13.4 3 Noroeste 15 Oeste 0 -- -- 80
2019-10-30 19:00:00 14.5 7 Noroeste 15 Oeste 0 -- -- 78
2019-10-30 18:00:00 16 6 Oeste 15 Sudoeste 0 -- -- 75
2019-10-30 17:00:00 17.7 8 Oeste 18 Oeste 0 -- -- 75
2019-10-30 16:00:00 18.4 10 Oeste 26 Oeste 0 -- -- 73
2019-10-30 15:00:00 19.6 14 Oeste 28 Oeste 0 -- -- 64
2019-10-30 14:00:00 19.9 15 Oeste 24 Oeste 0 -- -- 59
2019-10-30 13:00:00 20.1 10 Oeste 19 Oeste 0 -- -- 62
2019-10-30 12:00:00 19.6 9 Oeste 16 Oeste 0 -- -- 63
2019-10-30 11:00:00 18.6 7 Oeste 13 Sudoeste 0 -- -- 69
2019-10-30 10:00:00 16.9 3 Sudoeste 5 Sudoeste 0 -- -- 72
2019-10-30 09:00:00 15.1 0 Calma 2 Este 0 -- -- 80
2019-10-30 08:00:00 11.9 0 Calma 3 Norte 0 -- -- 94
2019-10-30 07:00:00 10.9 0 Calma 5 Nordeste 0 -- -- 94
2019-10-30 06:00:00 11.1 3 Norte 6 Norte 0 -- -- 94
2019-10-30 05:00:00 11.3 0 Calma 5 Norte 0 -- -- 93
2019-10-30 04:00:00 11.2 0 Calma 5 Oeste 0 -- -- 93
2019-10-30 03:00:00 11.9 0 Calma 6 Nordeste 0 -- -- 92
2019-10-30 02:00:00 11.7 0 Calma 8 Nordeste 0 -- -- 91
2019-10-30 01:00:00 11.7 0 Calma 3 Nordeste 0 -- -- 90
2019-10-30 00:00:00 12.3 2 Noroeste 5 Norte 0 -- -- 89
2019-10-29 23:00:00 12.4 0 Calma 6 Norte 0 -- -- 87
2019-10-29 22:00:00 12.9 0 Calma 8 Norte 0 -- -- 82
2019-10-29 21:00:00 12.9 0 Calma 5 Norte 0 -- -- 80
2019-10-29 20:00:00 13.3 3 Norte 6 Norte 0 -- -- 76
2019-10-29 19:00:00 14.7 5 Noroeste 8 Noroeste 0 -- -- 76
2019-10-29 18:00:00 16.1 3 Norte 8 Noroeste 0 -- -- 79
2019-10-29 17:00:00 18.8 6 Oeste 16 Oeste 0 -- -- 70
2019-10-29 16:00:00 20.3 8 Oeste 13 Oeste 0 -- -- 68
2019-10-29 15:00:00 20.4 5 Oeste 9 Oeste 0 -- -- 66
2019-10-29 14:00:00 19.4 4 Oeste 13 Oeste 0 -- -- 72
2019-10-29 13:00:00 17.8 7 Oeste 14 Oeste 0 -- -- 75
2019-10-29 12:00:00 18.2 5 Sudoeste 14 Oeste 0 -- -- 69
2019-10-29 11:00:00 15.3 2 Sudeste 7 Oeste 0 -- -- 83
2019-10-29 10:00:00 13.5 4 Sudoeste 9 Sudoeste 0 -- -- 88
2019-10-29 09:00:00 13 0 Calma 4 Nordeste 0 -- -- 91
2019-10-29 08:00:00 10.5 0 Calma 7 Este 0 -- -- 97
2019-10-29 07:00:00 10.1 0 Calma 6 Norte 0 -- -- 97
2019-10-29 06:00:00 10 3 Noroeste 7 Norte 0 -- -- 96
2019-10-29 05:00:00 10.2 5 Norte 7 Noroeste 0 -- -- 94
2019-10-29 04:00:00 11.2 6 Noroeste 10 Noroeste 0 -- -- 94
2019-10-29 03:00:00 10.3 0 Calma 4 Norte 0 -- -- 93
2019-10-29 02:00:00 11.1 3 Noroeste 5 Noroeste 0 -- -- 93
2019-10-29 01:00:00 11.3 0 Calma 4 Norte 0 -- -- 94
2019-10-29 00:00:00 11 0 Calma 5 Norte 0 -- -- 92
2019-10-28 23:00:00 11.3 3 Oeste 7 Noroeste 0 -- -- 89
2019-10-28 22:00:00 12.2 4 Noroeste 6 Noroeste 0 -- -- 86
2019-10-28 21:00:00 13.4 5 Noroeste 7 Norte 0 -- -- 86
2019-10-28 20:00:00 14 4 Noroeste 13 Noroeste 0 -- -- 85
2019-10-28 19:00:00 14.1 6 Noroeste 9 Noroeste 0 -- -- 81
2019-10-28 18:00:00 14.5 4 Oeste 10 Noroeste 0 -- -- 78
2019-10-28 17:00:00 14.9 5 Norte 8 Noroeste 0 -- -- 75
2019-10-28 16:00:00 15.2 4 Noroeste 13 Oeste 0 -- -- 74
2019-10-28 15:00:00 16.2 4 Oeste 10 Oeste 0 -- -- 71
2019-10-28 14:00:00 15.7 2 Sur 12 Oeste 0 -- -- 74
2019-10-28 13:00:00 15.9 3 Oeste 8 Oeste 0 -- -- 70
2019-10-28 12:00:00 15.5 4 Sudoeste 6 Sudoeste 0 -- -- 70
2019-10-28 11:00:00 14.7 0 Calma 8 Noroeste 0 -- -- 69
2019-10-28 10:00:00 14.2 3 Sudoeste 4 Sudoeste 0 -- -- 79
2019-10-28 09:00:00 12.3 2 Norte 4 Nordeste 0 -- -- 90
2019-10-28 08:00:00 11.3 3 Norte 5 Norte 0 -- -- 89
2019-10-28 07:00:00 11.2 0 Calma 4 Norte 0 -- -- 91
2019-10-28 06:00:00 11.4 0 Calma 6 Norte 0 -- -- 92
2019-10-28 05:00:00 11 0 Calma 4 Norte 0 -- -- 93
2019-10-28 04:00:00 10.8 0 Calma 6 Norte 0 -- -- 94
2019-10-28 03:00:00 10.9 0 Calma 6 Norte 0 -- -- 92
2019-10-28 02:00:00 11 0 Calma 6 Noroeste 0 -- -- 91
2019-10-28 01:00:00 11.4 2 Noroeste 8 Noroeste 0 -- -- 89
2019-10-28 00:00:00 11.7 4 Noroeste 7 Noroeste 0 -- -- 93
2019-10-27 23:00:00 12 0 Calma 5 Norte 0 -- -- 93
2019-10-27 22:00:00 12.6 4 Norte 6 Norte 0 -- -- 93
2019-10-27 21:00:00 13.3 4 Nordeste 6 Este 0 -- -- 92
2019-10-27 20:00:00 14 4 Nordeste 7 Este 0 -- -- 91
2019-10-27 19:00:00 14.9 2 Este 10 Sudeste 0 -- -- 88
2019-10-27 18:00:00 16.4 4 Este 13 Sudeste 0 -- -- 82
2019-10-27 17:00:00 18.8 5 Oeste 17 Oeste 0 -- -- 57
2019-10-27 16:00:00 19.6 8 Oeste 18 Oeste 0 -- -- 57
2019-10-27 15:00:00 20.8 6 Oeste 19 Oeste 0 -- -- 59
2019-10-27 14:00:00 20.1 8 Sudoeste 17 Sudoeste 0 -- -- 59
2019-10-27 13:00:00 19.8 8 Oeste 20 Oeste 0 -- -- 60
2019-10-27 12:00:00 19.4 9 Oeste 16 Sudoeste 0 -- -- 62
2019-10-27 11:00:00 18.5 5 Oeste 9 Oeste 0 -- -- 66
2019-10-27 10:00:00 16.6 2 Sur 5 Sur 0 -- -- 74
2019-10-27 09:00:00 14.3 0 Calma 4 Oeste 0 -- -- 85
2019-10-27 08:00:00 10.8 0 Calma 8 Norte 0 -- -- 96
2019-10-27 07:00:00 10.2 0 Calma 6 Norte 0 -- -- 96
2019-10-27 06:00:00 10.2 3 Norte 5 Norte 0 -- -- 96
2019-10-27 05:00:00 10.2 3 Nordeste 6 Norte 0 -- -- 95
2019-10-27 04:00:00 10.3 2 Noroeste 6 Norte 0 -- -- 94
2019-10-27 03:00:00 10.4 0 Calma 6 Norte 0 -- -- 93
2019-10-27 02:00:00 10.7 2 Nordeste 6 Sudeste 0 -- -- 93
2019-10-27 01:00:00 11.2 0 Calma 7 Norte 0 -- -- 89
2019-10-27 00:00:00 11.4 0 Calma 5 Nordeste 0 -- -- 89
2019-10-26 23:00:00 12.1 2 Noroeste 8 Nordeste 0 -- -- 88
2019-10-26 22:00:00 12.8 5 Nordeste 8 Este 0 -- -- 85
2019-10-26 21:00:00 13.4 3 Este 7 Este 0 -- -- 81
2019-10-26 20:00:00 14.3 4 Nordeste 9 Este 0 -- -- 77
2019-10-26 19:00:00 16.2 4 Sudeste 14 Sudeste 0 -- -- 70
2019-10-26 18:00:00 18.5 5 Sur 12 Sudeste 0 -- -- 62
2019-10-26 17:00:00 19.6 4 Sur 14 Sur 0 -- -- 58
2019-10-26 16:00:00 20.4 8 Sur 15 Sudeste 0 -- -- 58
2019-10-26 15:00:00 21.1 6 Oeste 13 Oeste 0 -- -- 49
2019-10-26 14:00:00 19.7 10 Oeste 17 Oeste 0 -- -- 54
2019-10-26 13:00:00 19.7 8 Oeste 13 Oeste 0 -- -- 54
2019-10-26 12:00:00 18.8 4 Sudoeste 8 Oeste 0 -- -- 57
2019-10-26 11:00:00 17.4 2 Sur 5 Sudeste 0 -- -- 57
2019-10-26 10:00:00 15.2 3 Este 6 Nordeste 0 -- -- 61
2019-10-26 09:00:00 10.9 3 Nordeste 5 Este 0 -- -- 78
2019-10-26 08:00:00 9.9 3 Norte 8 Norte 0 -- -- 80
2019-10-26 07:00:00 9.8 3 Noroeste 7 Noroeste 0 -- -- 79
2019-10-26 06:00:00 9.5 3 Norte 6 Norte 0 -- -- 83
2019-10-26 05:00:00 9.8 0 Calma 5 Noroeste 0 -- -- 78
2019-10-26 04:00:00 10.2 3 Norte 8 Norte 0 -- -- 71
2019-10-26 03:00:00 10.4 3 Nordeste 10 Nordeste 0 -- -- 74
2019-10-26 02:00:00 10.3 5 Norte 9 Norte 0 -- -- 75
2019-10-26 01:00:00 10.3 0 Calma 6 Nordeste 0 -- -- 76
2019-10-26 00:00:00 10.8 3 Oeste 9 Norte 0 -- -- 79
2019-10-25 23:00:00 10.6 4 Norte 8 Noroeste 0 -- -- 79
2019-10-25 22:00:00 10.7 4 Norte 7 Este 0 -- -- 85
2019-10-25 21:00:00 11.3 2 Norte 9 Norte 0 -- -- 83
2019-10-25 20:00:00 12.7 5 Noroeste 9 Noroeste 0 -- -- 77
2019-10-25 19:00:00 14.9 4 Noroeste 10 Oeste 0 -- -- 69
2019-10-25 18:00:00 17.4 5 Oeste 15 Oeste 0 -- -- 57
2019-10-25 17:00:00 17.8 10 Oeste 19 Oeste 0 -- -- 53
2019-10-25 16:00:00 18.6 6 Oeste 18 Noroeste 0 -- -- 52
2019-10-25 15:00:00 18 9 Oeste 18 Oeste 0 -- -- 58
2019-10-25 14:00:00 17.1 9 Oeste 18 Oeste 0 -- -- 66
2019-10-25 13:00:00 16.6 11 Oeste 17 Oeste 0 -- -- 67
2019-10-25 12:00:00 15.5 4 Sudoeste 9 Sudoeste 0 -- -- 68
2019-10-25 11:00:00 12.4 3 Sudoeste 5 Sudoeste 0 -- -- 77
2019-10-25 10:00:00 10.1 3 Sur 9 Nordeste 0 -- -- 87
2019-10-25 09:00:00 7.8 3 Norte 6 Sudeste 0 -- -- 98
2019-10-25 08:00:00 7.1 3 Noroeste 9 Oeste 0 -- -- 96
2019-10-25 07:00:00 7.2 4 Noroeste 11 Noroeste 0 -- -- 96
2019-10-25 06:00:00 7.3 4 Nordeste 10 Oeste 0 -- -- 95
2019-10-25 05:00:00 7.7 4 Noroeste 18 Noroeste 0 -- -- 95
2019-10-25 04:00:00 7.7 3 Norte 6 Norte 0 -- -- 94
2019-10-25 03:00:00 8.3 5 Noroeste 9 Noroeste 0 -- -- 92
2019-10-25 02:00:00 8.3 4 Oeste 9 Noroeste 0 -- -- 91
2019-10-25 01:00:00 8.6 4 Noroeste 12 Noroeste 0 -- -- 90
2019-10-25 00:00:00 9.3 6 Noroeste 11 Noroeste 0 -- -- 89
2019-10-24 23:00:00 9.9 6 Noroeste 15 Noroeste 0 -- -- 88
2019-10-24 22:00:00 9.5 2 Norte 7 Oeste 0 -- -- 92
2019-10-24 21:00:00 10 0 Calma 8 Oeste 0 -- -- 91
2019-10-24 20:00:00 10.8 4 Norte 10 Oeste 0 -- -- 88
2019-10-24 19:00:00 11.6 3 Noroeste 12 Oeste 0 -- -- 85
2019-10-24 18:00:00 12 6 Oeste 26 Oeste 0 -- -- 85
2019-10-24 17:00:00 12.9 14 Oeste 28 Oeste 0 -- -- 78
2019-10-24 16:00:00 13.7 13 Oeste 26 Oeste 0 -- -- 77
2019-10-24 15:00:00 14 12 Oeste 27 Sudoeste 0 -- -- 76
2019-10-24 14:00:00 13.5 9 Oeste 19 Oeste 0 -- -- 78
2019-10-24 13:00:00 13.2 9 Oeste 21 Sudoeste 0 -- -- 80
2019-10-24 12:00:00 11.7 12 Oeste 21 Oeste 0 -- -- 86
2019-10-24 11:00:00 12.1 8 Oeste 18 Oeste 0 -- -- 86
2019-10-24 10:00:00 10.4 5 Este 9 Oeste 0 -- -- 96
2019-10-24 09:00:00 8.3 3 Norte 5 Norte 0 -- -- 99
2019-10-24 08:00:00 7 3 Norte 6 Nordeste 0 -- -- 99
2019-10-24 07:00:00 7.1 0 Calma 7 Norte 0 -- -- 98
2019-10-24 06:00:00 6.9 2 Norte 8 Norte 0 -- -- 98
2019-10-24 05:00:00 7.8 2 Noroeste 6 Este 0 -- -- 98
2019-10-24 04:00:00 7.9 0 Calma 6 Nordeste 0 -- -- 97
2019-10-24 03:00:00 8.2 0 Calma 5 Noroeste 0 -- -- 95
2019-10-24 02:00:00 9.3 4 Noroeste 9 Oeste 0 -- -- 94
2019-10-24 01:00:00 9.4 4 Sudoeste 9 Sudoeste 0 -- -- 94
2019-10-24 00:00:00 9.5 0 Calma 11 Sudoeste 0 -- -- 94
2019-10-23 23:00:00 9.7 5 Sudoeste 11 Oeste 0 -- -- 95
2019-10-23 22:00:00 10 3 Sudoeste 8 Sudeste 0 -- -- 94
2019-10-23 21:00:00 10.3 0 Calma 9 Este 0 -- -- 93
2019-10-23 20:00:00 10.9 5 Sudeste 15 Sudoeste 0 -- -- 90
2019-10-23 19:00:00 11.8 7 Sur 18 Sudeste 0 -- -- 86
2019-10-23 18:00:00 12.7 9 Sudeste 22 Sudeste 0 -- -- 84
2019-10-23 17:00:00 13.9 8 Sudeste 18 Sudeste 0 -- -- 83
2019-10-23 16:00:00 14.5 9 Sudeste 20 Sudeste 0 -- -- 81
2019-10-23 15:00:00 14.8 8 Sudeste 18 Sudeste 0.2 -- -- 80
2019-10-23 14:00:00 14.5 5 Sudeste 14 Sudeste 0 -- -- 85
2019-10-23 13:00:00 13.1 7 Sudeste 14 Sudeste 0 -- -- 90
2019-10-23 12:00:00 12.7 6 Sudeste 15 Sudeste 0 -- -- 95
2019-10-23 11:00:00 12.2 3 Sur 13 Sur 0 -- -- 98
2019-10-23 10:00:00 12.4 6 Sudeste 14 Este 0 -- -- 98
2019-10-23 09:00:00 12.4 8 Este 21 Sudeste 0 -- -- 98
2019-10-23 08:00:00 12.4 7 Este 22 Este 0.2 -- -- 98
2019-10-23 07:00:00 12.4 6 Este 19 Este 0 -- -- 98
2019-10-23 06:00:00 12.3 6 Nordeste 16 Noroeste 0.2 -- -- 99
2019-10-23 05:00:00 12.2 5 Nordeste 23 Este 0.8 -- -- 99
2019-10-23 04:00:00 11.8 5 Sur 19 Norte 1 -- -- 99
2019-10-23 03:00:00 11.8 5 Noroeste 24 Oeste 4.4 -- -- 98
2019-10-23 02:00:00 11.7 8 Noroeste 26 Oeste 23.6 -- -- 98
2019-10-23 01:00:00 11.4 6 Noroeste 27 Oeste 23.4 -- -- 97
2019-10-23 00:00:00 12.1 9 Oeste 45 Oeste 14 -- -- 93
2019-10-22 23:00:00 16.3 8 Este 35 Este 0.4 -- -- 91
2019-10-22 22:00:00 16.6 17 Este 40 Nordeste 0 -- -- 90
2019-10-22 21:00:00 16.5 13 Este 33 Nordeste 0 -- -- 90
2019-10-22 20:00:00 16.3 13 Este 51 Este 0 -- -- 88
2019-10-22 19:00:00 16 12 Este 37 Este 0 -- -- 88
2019-10-22 18:00:00 16.5 15 Este 36 Nordeste 0 -- -- 86
2019-10-22 17:00:00 15.2 18 Nordeste 48 Nordeste 1.4 -- -- 90
2019-10-22 16:00:00 15.2 19 Este 53 Nordeste 0.4 -- -- 87
2019-10-22 15:00:00 14.1 18 Este 55 Nordeste 5 -- -- 92
2019-10-22 14:00:00 15.2 23 Nordeste 53 Este 0 -- -- 83
2019-10-22 13:00:00 14.4 28 Nordeste 71 Este 0 -- -- 85
2019-10-22 12:00:00 13.3 33 Nordeste 64 Nordeste 0.2 -- -- 90
2019-10-22 11:00:00 12.4 31 Nordeste 76 Nordeste 0 -- -- 93
2019-10-22 10:00:00 12.1 28 Nordeste 62 Norte 0 -- -- 94
2019-10-22 09:00:00 11.6 24 Nordeste 55 Nordeste 3 -- -- 96
2019-10-22 08:00:00 11.2 13 Nordeste 26 Este 2 -- -- 95
2019-10-22 07:00:00 11.3 5 Nordeste 21 Nordeste 2.2 -- -- 93
2019-10-22 06:00:00 11.3 12 Nordeste 30 Este 0 -- -- 90
2019-10-22 05:00:00 11.2 6 Este 22 Este 0 -- -- 90
2019-10-22 04:00:00 10.9 4 Nordeste 10 Este 0 -- -- 92
2019-10-22 03:00:00 10.2 5 Este 10 Nordeste 0 -- -- 94
2019-10-22 02:00:00 10.2 0 Calma 7 Norte 0 -- -- 93
2019-10-22 01:00:00 10 0 Calma 6 Norte 0 -- -- 93
2019-10-22 00:00:00 10.4 0 Calma 8 Este 0 -- -- 93